Toronto, Canada
Current Conditions -  °F | °C
As of 10:00 PM on Saturday 25 Oct 2014 (Local Time) from CYYZ Reporting Station
Few Clouds Few Clouds  
Wind Chill: 52°   Ceiling: Unl
Heat Index: 52°   Visibility: 15mi
Dew Point: 39°   Wind: 15mph
Humidity: 62%   Direction: 300°WNW
Pressure: 29.64"   Gusts: NA
Location:  43.65°N, 79.39°W
Report Text: CYYZ 260200Z 30013KT 15SM FEW030 11/04 A2964 RMK SC2 SLP040
Loading
Personal Weather Stations






























Interactive Weather Map New forecast layout! Learn more

10-Day Weather Forecast

Advertisements
Track Severe Weather on mobile